Time;durP1;ratioP1;P1;durP2;ratioP2;P2;SDS_P1;SDS_P2;PMS_P1;PMS_P2;Temp;Humidity;BMP_temperature;BMP_pressure;BME280_temperature;BME280_humidity;BME280_pressure;Samples;Min_cycle;Max_cycle;Signal;HPM_P1;HPM_P2
2021/09/07 00:01:56;;;;;;;;;;;15.10;78.80;;;;;;5093065;28;19908;-69
2021/09/07 00:04:28;;;;;;;;;;;15.20;79.00;;;;;;5093008;28;19914;-68
2021/09/07 00:06:56;;;;;;;;;;;15.30;77.90;;;;;;5092515;28;19915;-68
2021/09/07 00:09:23;;;;;;;;;;;15.30;76.30;;;;;;5093008;28;19908;-68
2021/09/07 00:11:50;;;;;;;;;;;15.40;75.20;;;;;;5092864;28;20030;-68
2021/09/07 00:14:17;;;;;;;;;;;15.50;75.60;;;;;;5092661;28;19999;-69
2021/09/07 00:16:43;;;;;;;;;;;15.50;74.70;;;;;;5092770;28;19915;-69
2021/09/07 00:19:10;;;;;;;;;;;15.50;75.60;;;;;;5092769;28;20248;-69
2021/09/07 00:21:37;;;;;;;;;;;15.60;73.30;;;;;;5092652;28;20354;-68
2021/09/07 00:24:03;;;;;;;;;;;15.60;73.80;;;;;;5092803;28;19908;-68
2021/09/07 00:26:30;;;;;;;;;;;15.70;73.00;;;;;;5092672;28;19915;-68
2021/09/07 00:28:57;;;;;;;;;;;15.90;72.90;;;;;;5092409;28;19931;-69
2021/09/07 00:31:23;;;;;;;;;;;16.10;74.00;;;;;;5092772;28;19912;-68
2021/09/07 00:33:50;;;;;;;;;;;16.20;73.30;;;;;;5092200;28;19916;-68
2021/09/07 00:36:17;;;;;;;;;;;16.10;72.90;;;;;;5092638;28;20033;-68
2021/09/07 00:38:43;;;;;;;;;;;16.10;72.30;;;;;;5092800;28;19951;-68
2021/09/07 00:41:10;;;;;;;;;;;16.10;71.90;;;;;;5092653;28;19908;-68
2021/09/07 00:43:39;;;;;;;;;;;16.20;72.50;;;;;;5092335;28;19908;-68
2021/09/07 00:46:06;;;;;;;;;;;16.20;71.80;;;;;;5091059;28;20335;-68
2021/09/07 00:48:33;;;;;;;;;;;16.40;70.00;;;;;;5092633;28;19919;-69
2021/09/07 00:50:59;;;;;;;;;;;16.50;70.30;;;;;;5092450;28;19916;-69
2021/09/07 00:53:26;;;;;;;;;;;16.60;68.40;;;;;;5092562;28;19908;-68
2021/09/07 00:55:57;;;;;;;;;;;16.60;68.50;;;;;;5092226;28;20246;-68
2021/09/07 00:58:27;;;;;;;;;;;16.70;69.50;;;;;;5092254;28;19908;-68
2021/09/07 01:00:53;;;;;;;;;;;16.80;68.20;;;;;;5092325;28;19908;-68
2021/09/07 01:03:20;;;;;;;;;;;16.90;67.90;;;;;;5092483;28;20362;-68
2021/09/07 01:05:47;;;;;;;;;;;16.90;69.00;;;;;;5092091;28;20002;-67
2021/09/07 01:08:14;;;;;;;;;;;17.00;67.00;;;;;;5092371;28;19916;-67
2021/09/07 01:10:41;;;;;;;;;;;17.30;66.20;;;;;;5092080;28;19919;-68
2021/09/07 01:13:08;;;;;;;;;;;17.50;66.30;;;;;;5092038;28;20006;-68
2021/09/07 01:15:35;;;;;;;;;;;18.10;63.90;;;;;;5092022;28;19912;-68
2021/09/07 01:18:02;;;;;;;;;;;18.70;61.20;;;;;;5092272;28;20018;-67
2021/09/07 01:20:28;;;;;;;;;;;18.90;60.30;;;;;;5094817;28;20086;-68
2021/09/07 01:22:55;;;;;;;;;;;19.30;58.50;;;;;;5096047;28;19909;-68
2021/09/07 01:25:22;;;;;;;;;;;19.20;57.00;;;;;;5096042;28;19930;-68
2021/09/07 01:27:49;;;;;;;;;;;19.20;56.60;;;;;;5095774;28;19989;-69
2021/09/07 01:30:15;;;;;;;;;;;19.30;56.00;;;;;;5096057;28;20243;-68
2021/09/07 01:32:42;;;;;;;;;;;19.40;56.60;;;;;;5095905;28;20404;-69
2021/09/07 01:35:09;;;;;;;;;;;19.50;55.00;;;;;;5096056;28;19908;-68
2021/09/07 01:37:39;;;;;;;;;;;19.40;53.10;;;;;;5095824;28;20003;-68
2021/09/07 01:40:06;;;;;;;;;;;19.30;54.80;;;;;;5096028;28;19908;-69
2021/09/07 01:42:33;;;;;;;;;;;19.30;56.50;;;;;;5095566;28;20366;-69
2021/09/07 01:45:00;;;;;;;;;;;19.30;52.00;;;;;;5095652;28;20329;-69
2021/09/07 01:47:26;;;;;;;;;;;19.20;51.70;;;;;;5095667;28;19926;-68
2021/09/07 01:49:53;;;;;;;;;;;19.30;50.70;;;;;;5095585;28;20007;-69
2021/09/07 01:52:19;;;;;;;;;;;19.50;50.50;;;;;;5095577;28;19923;-68
2021/09/07 01:54:48;;;;;;;;;;;19.60;50.60;;;;;;5095623;28;19953;-69
2021/09/07 01:57:15;;;;;;;;;;;19.80;49.70;;;;;;5095614;28;20020;-68
2021/09/07 01:59:41;;;;;;;;;;;19.70;51.80;;;;;;5095472;28;19960;-69
2021/09/07 02:02:08;;;;;;;;;;;19.80;48.30;;;;;;5095754;28;19908;-68
2021/09/07 02:04:35;;;;;;;;;;;19.90;47.40;;;;;;5095590;28;19915;-68
2021/09/07 02:07:01;;;;;;;;;;;20.00;45.70;;;;;;5095750;28;19908;-69
2021/09/07 02:09:28;;;;;;;;;;;20.00;45.10;;;;;;5096058;28;20374;-69
2021/09/07 02:11:55;;;;;;;;;;;20.00;44.50;;;;;;5096549;28;19957;-69
2021/09/07 02:14:22;;;;;;;;;;;20.10;45.90;;;;;;5098985;28;19912;-69
2021/09/07 02:16:48;;;;;;;;;;;20.10;45.20;;;;;;5099023;28;19915;-69
2021/09/07 02:19:15;;;;;;;;;;;20.20;43.40;;;;;;5098231;28;19915;-69
2021/09/07 02:21:42;;;;;;;;;;;20.20;45.20;;;;;;5096374;28;19909;-69
2021/09/07 02:24:09;;;;;;;;;;;20.10;44.00;;;;;;5096141;28;20446;-69
2021/09/07 02:26:36;;;;;;;;;;;20.10;45.00;;;;;;5095784;28;19914;-69
2021/09/07 02:29:02;;;;;;;;;;;20.00;43.50;;;;;;5094952;28;19915;-69
2021/09/07 02:31:29;;;;;;;;;;;19.90;43.70;;;;;;5094343;28;19920;-69
2021/09/07 02:33:56;;;;;;;;;;;19.90;44.90;;;;;;5094780;28;19908;-69
2021/09/07 02:36:24;;;;;;;;;;;19.90;44.90;;;;;;5094790;28;19912;-68
2021/09/07 02:38:50;;;;;;;;;;;19.90;46.20;;;;;;5094756;28;19908;-69
2021/09/07 02:41:17;;;;;;;;;;;19.90;44.90;;;;;;5094757;28;19908;-69
2021/09/07 02:43:44;;;;;;;;;;;20.10;44.70;;;;;;5094180;28;20380;-69
2021/09/07 02:46:11;;;;;;;;;;;20.10;43.50;;;;;;5094309;28;20375;-68
2021/09/07 02:48:37;;;;;;;;;;;20.30;44.00;;;;;;5094403;28;19910;-68
2021/09/07 02:51:04;;;;;;;;;;;20.30;44.40;;;;;;5094317;28;19912;-68
2021/09/07 02:53:31;;;;;;;;;;;20.20;43.80;;;;;;5094108;28;19923;-69
2021/09/07 02:55:57;;;;;;;;;;;20.20;43.70;;;;;;5094420;28;20014;-68
2021/09/07 02:58:24;;;;;;;;;;;20.30;44.60;;;;;;5094259;28;20034;-69
2021/09/07 03:00:51;;;;;;;;;;;20.20;45.60;;;;;;5094010;28;19912;-68
2021/09/07 03:03:17;;;;;;;;;;;20.30;45.50;;;;;;5094023;28;20382;-69
2021/09/07 03:05:44;;;;;;;;;;;20.40;44.00;;;;;;5093978;28;19912;-68
2021/09/07 03:08:11;;;;;;;;;;;20.50;44.00;;;;;;5094145;28;19916;-68
2021/09/07 03:10:37;;;;;;;;;;;20.60;43.70;;;;;;5093975;28;19909;-69
2021/09/07 03:13:04;;;;;;;;;;;20.60;43.80;;;;;;5093890;28;19923;-68
2021/09/07 03:15:31;;;;;;;;;;;20.60;45.90;;;;;;5093781;28;20317;-68
2021/09/07 03:17:57;;;;;;;;;;;20.60;45.70;;;;;;5093900;28;19991;-69
2021/09/07 03:20:24;;;;;;;;;;;20.50;45.70;;;;;;5093963;28;19908;-68
2021/09/07 03:22:50;;;;;;;;;;;20.50;45.70;;;;;;5093630;28;19935;-68
2021/09/07 03:25:17;;;;;;;;;;;20.60;46.30;;;;;;5093630;28;20359;-68
2021/09/07 03:27:44;;;;;;;;;;;20.60;46.20;;;;;;5093308;28;19934;-68
2021/09/07 03:30:11;;;;;;;;;;;20.50;47.00;;;;;;5093545;28;19950;-68
2021/09/07 03:32:39;;;;;;;;;;;20.40;46.70;;;;;;5093485;28;19984;-67
2021/09/07 03:35:06;;;;;;;;;;;20.30;46.80;;;;;;5093557;28;19922;-68
2021/09/07 03:37:33;;;;;;;;;;;20.30;47.40;;;;;;5093269;28;19931;-68
2021/09/07 03:40:00;;;;;;;;;;;20.50;47.00;;;;;;5093773;28;19908;-68
2021/09/07 03:42:26;;;;;;;;;;;20.60;45.90;;;;;;5092682;28;19931;-67
2021/09/07 03:44:53;;;;;;;;;;;20.70;46.40;;;;;;5093476;28;20000;-68
2021/09/07 03:47:20;;;;;;;;;;;20.70;45.90;;;;;;5093258;28;20312;-68
2021/09/07 03:49:46;;;;;;;;;;;20.70;47.40;;;;;;5093069;28;20282;-68
2021/09/07 03:52:13;;;;;;;;;;;20.60;47.40;;;;;;5093139;28;19916;-68
2021/09/07 03:54:40;;;;;;;;;;;20.60;48.40;;;;;;5093119;28;19908;-68
2021/09/07 03:57:06;;;;;;;;;;;20.80;48.70;;;;;;5093078;28;19915;-68
2021/09/07 03:59:33;;;;;;;;;;;20.90;47.00;;;;;;5093115;28;20274;-68
2021/09/07 04:02:00;;;;;;;;;;;21.00;48.10;;;;;;5091890;28;19998;-68
2021/09/07 04:04:26;;;;;;;;;;;21.00;47.50;;;;;;5093145;28;19931;-69
2021/09/07 04:06:53;;;;;;;;;;;21.00;47.50;;;;;;5092957;28;20354;-68
2021/09/07 04:09:22;;;;;;;;;;;21.00;47.20;;;;;;5092923;28;19908;-68
2021/09/07 04:11:49;;;;;;;;;;;21.00;47.20;;;;;;5092433;28;19920;-68
2021/09/07 04:14:16;;;;;;;;;;;20.80;48.70;;;;;;5092724;28;19930;-68
2021/09/07 04:16:43;;;;;;;;;;;20.90;48.20;;;;;;5092897;28;20366;-68
2021/09/07 04:19:10;;;;;;;;;;;20.90;47.50;;;;;;5092676;28;19990;-68
2021/09/07 04:21:37;;;;;;;;;;;20.90;48.20;;;;;;5092784;28;19918;-69
2021/09/07 04:24:04;;;;;;;;;;;21.00;48.50;;;;;;5093002;28;20034;-68
2021/09/07 04:26:31;;;;;;;;;;;21.00;48.20;;;;;;5092465;28;19912;-68
2021/09/07 04:28:58;;;;;;;;;;;21.10;48.30;;;;;;5092590;28;19915;-68
2021/09/07 04:31:24;;;;;;;;;;;21.00;49.00;;;;;;5092551;28;19919;-68
2021/09/07 04:33:51;;;;;;;;;;;20.90;48.90;;;;;;5091174;28;19947;-67
2021/09/07 04:36:18;;;;;;;;;;;20.90;48.80;;;;;;5092627;28;19908;-68
2021/09/07 04:38:44;;;;;;;;;;;21.00;49.10;;;;;;5092600;28;19908;-68
2021/09/07 04:41:13;;;;;;;;;;;21.00;49.80;;;;;;5092484;28;19916;-68
2021/09/07 04:43:39;;;;;;;;;;;20.80;49.80;;;;;;5092145;28;19908;-68
2021/09/07 04:46:06;;;;;;;;;;;20.90;49.00;;;;;;5124857;27;20016;-69
2021/09/07 04:48:33;;;;;;;;;;;21.00;49.00;;;;;;5092409;28;19915;-69
2021/09/07 04:50:59;;;;;;;;;;;20.90;49.60;;;;;;5092197;28;19961;-69
2021/09/07 04:53:26;;;;;;;;;;;20.80;49.60;;;;;;5094262;28;19912;-69
2021/09/07 04:55:53;;;;;;;;;;;20.90;49.80;;;;;;5098767;28;19930;-69
2021/09/07 04:58:19;;;;;;;;;;;20.90;49.90;;;;;;5099031;28;19951;-69
2021/09/07 05:00:46;;;;;;;;;;;21.00;49.80;;;;;;5098880;28;20323;-69
2021/09/07 05:03:12;;;;;;;;;;;20.90;49.30;;;;;;5099089;28;19931;-69
2021/09/07 05:05:39;;;;;;;;;;;20.80;50.20;;;;;;5098755;28;19908;-69
2021/09/07 05:08:06;;;;;;;;;;;20.90;49.70;;;;;;5098950;28;20007;-69
2021/09/07 05:10:33;;;;;;;;;;;20.90;50.80;;;;;;5098994;28;19908;-69
2021/09/07 05:12:59;;;;;;;;;;;20.80;51.30;;;;;;5098811;28;19977;-69
2021/09/07 05:15:26;;;;;;;;;;;20.80;52.40;;;;;;5098728;28;19995;-69
2021/09/07 05:17:53;;;;;;;;;;;20.80;50.60;;;;;;5098817;28;20410;-69
2021/09/07 05:20:19;;;;;;;;;;;20.70;51.30;;;;;;5098950;28;20363;-69
2021/09/07 05:22:46;;;;;;;;;;;20.80;51.20;;;;;;5099130;28;19908;-69
2021/09/07 05:25:13;;;;;;;;;;;20.70;51.30;;;;;;5098875;28;19954;-69
2021/09/07 05:27:40;;;;;;;;;;;20.60;50.70;;;;;;5098378;28;19915;-70
2021/09/07 05:30:08;;;;;;;;;;;20.80;50.80;;;;;;5098911;28;20002;-69
2021/09/07 05:32:34;;;;;;;;;;;20.80;50.90;;;;;;5098754;28;19916;-69
2021/09/07 05:35:01;;;;;;;;;;;20.80;50.40;;;;;;5098821;28;19912;-69
2021/09/07 05:37:28;;;;;;;;;;;20.90;50.90;;;;;;5098738;28;19998;-69
2021/09/07 05:39:54;;;;;;;;;;;20.90;50.80;;;;;;5098788;28;19908;-69
2021/09/07 05:42:21;;;;;;;;;;;20.90;50.50;;;;;;5098796;28;20358;-69
2021/09/07 05:44:48;;;;;;;;;;;20.90;50.30;;;;;;5098706;28;19934;-69
2021/09/07 05:47:14;;;;;;;;;;;20.90;50.10;;;;;;5098544;28;19919;-69
2021/09/07 05:49:41;;;;;;;;;;;21.00;50.20;;;;;;5098402;28;20407;-69
2021/09/07 05:52:08;;;;;;;;;;;21.00;50.90;;;;;;5098559;28;19916;-69
2021/09/07 05:54:34;;;;;;;;;;;20.90;51.40;;;;;;5098503;28;19985;-69
2021/09/07 05:57:01;;;;;;;;;;;20.90;50.90;;;;;;5097134;28;20269;-69
2021/09/07 05:59:27;;;;;;;;;;;20.80;50.90;;;;;;5098463;28;19908;-69
2021/09/07 06:01:54;;;;;;;;;;;20.80;50.80;;;;;;5098648;28;20321;-69
2021/09/07 06:04:21;;;;;;;;;;;20.70;51.70;;;;;;5098458;28;19920;-69
2021/09/07 06:06:47;;;;;;;;;;;20.60;51.40;;;;;;5094594;28;20346;-70
2021/09/07 06:09:14;;;;;;;;;;;20.60;51.70;;;;;;5095339;28;19908;-69
2021/09/07 06:11:41;;;;;;;;;;;20.60;51.20;;;;;;5094655;28;19927;-69
2021/09/07 06:14:07;;;;;;;;;;;20.60;51.60;;;;;;5095121;28;19943;-69
2021/09/07 06:16:34;;;;;;;;;;;20.70;51.90;;;;;;5095074;28;20428;-69
2021/09/07 06:19:01;;;;;;;;;;;20.80;52.10;;;;;;5094994;28;20286;-70
2021/09/07 06:21:28;;;;;;;;;;;20.80;51.90;;;;;;5095253;28;19908;-69
2021/09/07 06:23:55;;;;;;;;;;;20.80;51.90;;;;;;5095173;28;20267;-69
2021/09/07 06:26:22;;;;;;;;;;;20.80;52.00;;;;;;5094798;28;19908;-69
2021/09/07 06:28:48;;;;;;;;;;;20.70;52.70;;;;;;5094879;28;19908;-69
2021/09/07 06:31:15;;;;;;;;;;;20.70;52.00;;;;;;5094687;28;19912;-69
2021/09/07 06:33:41;;;;;;;;;;;20.70;52.70;;;;;;5094721;28;19912;-69
2021/09/07 06:36:08;;;;;;;;;;;20.60;52.30;;;;;;5094657;28;19908;-69
2021/09/07 06:38:35;;;;;;;;;;;20.50;53.00;;;;;;5091541;28;19915;-68
2021/09/07 06:41:06;;;;;;;;;;;20.60;53.10;;;;;;5074555;28;19912;-68
2021/09/07 06:43:34;;;;;;;;;;;20.60;53.20;;;;;;5071393;28;19916;-68
2021/09/07 06:46:00;;;;;;;;;;;20.50;53.60;;;;;;5088058;28;20018;-68
2021/09/07 06:48:27;;;;;;;;;;;20.50;53.90;;;;;;5092372;28;19912;-68
2021/09/07 06:50:53;;;;;;;;;;;20.60;52.70;;;;;;5092206;28;19939;-68
2021/09/07 06:53:20;;;;;;;;;;;20.50;53.20;;;;;;5092402;28;20558;-68
2021/09/07 06:55:47;;;;;;;;;;;20.40;53.10;;;;;;5091553;28;20000;-68
2021/09/07 06:58:14;;;;;;;;;;;20.40;53.00;;;;;;5091976;28;19912;-68
2021/09/07 07:00:40;;;;;;;;;;;20.40;52.80;;;;;;5092168;28;19915;-68
2021/09/07 07:03:07;;;;;;;;;;;20.40;52.80;;;;;;5092171;28;20320;-68
2021/09/07 07:05:33;;;;;;;;;;;20.20;53.60;;;;;;5092050;28;20015;-68
2021/09/07 07:08:01;;;;;;;;;;;20.10;53.90;;;;;;5091559;28;20279;-68
2021/09/07 07:10:28;;;;;;;;;;;20.10;54.00;;;;;;5091690;28;19970;-69
2021/09/07 07:12:54;;;;;;;;;;;20.00;63.20;;;;;;5091687;28;19916;-69
2021/09/07 07:15:21;;;;;;;;;;;19.80;75.30;;;;;;5091726;28;19950;-69
2021/09/07 07:17:47;;;;;;;;;;;19.40;78.10;;;;;;5090466;28;19912;-69
2021/09/07 07:20:14;;;;;;;;;;;19.10;82.00;;;;;;5091741;28;20382;-69
2021/09/07 07:22:41;;;;;;;;;;;18.90;85.60;;;;;;5091175;28;20688;-69
2021/09/07 07:25:08;;;;;;;;;;;18.70;86.30;;;;;;5091980;28;19908;-69
2021/09/07 07:27:38;;;;;;;;;;;18.50;87.50;;;;;;5091360;28;19999;-69
2021/09/07 07:30:05;;;;;;;;;;;18.40;88.10;;;;;;5091599;28;19908;-68
2021/09/07 07:32:32;;;;;;;;;;;18.30;89.20;;;;;;5091438;28;19966;-69
2021/09/07 07:34:59;;;;;;;;;;;18.20;90.10;;;;;;5091182;28;19908;-69
2021/09/07 07:37:25;;;;;;;;;;;18.10;90.70;;;;;;5091505;28;19912;-69
2021/09/07 07:39:52;;;;;;;;;;;18.00;91.50;;;;;;5091403;28;19908;-69
2021/09/07 07:42:19;;;;;;;;;;;17.90;91.70;;;;;;5091152;28;19912;-69
2021/09/07 07:44:47;;;;;;;;;;;17.80;92.40;;;;;;5091335;28;20354;-69
2021/09/07 07:47:14;;;;;;;;;;;17.70;92.30;;;;;;5091022;28;20001;-69
2021/09/07 07:49:40;;;;;;;;;;;17.70;91.50;;;;;;5090991;28;20354;-69
2021/09/07 07:52:07;;;;;;;;;;;17.60;91.60;;;;;;5091106;28;19923;-69
2021/09/07 07:54:34;;;;;;;;;;;17.60;91.30;;;;;;5091223;28;19946;-69
2021/09/07 07:57:01;;;;;;;;;;;17.50;91.40;;;;;;5091230;28;19912;-70
2021/09/07 07:59:28;;;;;;;;;;;17.50;91.80;;;;;;5091318;28;20381;-69
2021/09/07 08:01:55;;;;;;;;;;;17.40;92.20;;;;;;5090489;28;19911;-69
2021/09/07 08:04:21;;;;;;;;;;;17.40;92.70;;;;;;5091008;28;19972;-69
2021/09/07 08:07:06;;;;;;;;;;;17.40;93.30;;;;;;5090918;28;19912;-69
2021/09/07 08:09:34;;;;;;;;;;;17.30;93.70;;;;;;5087371;28;19957;-68
2021/09/07 08:12:00;;;;;;;;;;;17.30;93.60;;;;;;5090610;28;19959;-69
2021/09/07 08:14:27;;;;;;;;;;;17.30;93.20;;;;;;5090471;28;19918;-68
2021/09/07 08:16:54;;;;;;;;;;;17.30;93.00;;;;;;5090728;28;19915;-69
2021/09/07 08:19:21;;;;;;;;;;;17.20;91.90;;;;;;5090577;28;20010;-69
2021/09/07 08:21:47;;;;;;;;;;;17.20;91.80;;;;;;5090787;28;19931;-69
2021/09/07 08:24:14;;;;;;;;;;;17.20;92.30;;;;;;5090709;28;19909;-68
2021/09/07 08:26:41;;;;;;;;;;;17.20;92.20;;;;;;5089999;28;19965;-68
2021/09/07 08:29:07;;;;;;;;;;;17.10;92.70;;;;;;5090152;28;19914;-68
2021/09/07 08:31:34;;;;;;;;;;;17.10;94.60;;;;;;5090382;28;19970;-68
2021/09/07 08:34:01;;;;;;;;;;;17.10;95.90;;;;;;5090469;28;20302;-69
2021/09/07 08:36:27;;;;;;;;;;;17.10;96.70;;;;;;5090607;28;20338;-69
2021/09/07 08:38:54;;;;;;;;;;;17.00;97.20;;;;;;5090501;28;19931;-68
2021/09/07 08:41:20;;;;;;;;;;;16.90;97.90;;;;;;5078909;28;19912;-68
2021/09/07 08:43:49;;;;;;;;;;;16.90;98.30;;;;;;5069854;28;20412;-68
2021/09/07 08:46:16;;;;;;;;;;;16.90;98.70;;;;;;5069713;28;19989;-68
2021/09/07 08:48:43;;;;;;;;;;;16.80;99.00;;;;;;5070553;28;20303;-69
2021/09/07 08:51:10;;;;;;;;;;;16.80;99.50;;;;;;5070180;28;20264;-69
2021/09/07 08:53:37;;;;;;;;;;;16.70;99.70;;;;;;5069383;28;19919;-69
2021/09/07 08:56:07;;;;;;;;;;;16.70;99.40;;;;;;5069943;28;19916;-69
2021/09/07 08:58:34;;;;;;;;;;;16.70;98.70;;;;;;5070178;28;20062;-68
2021/09/07 09:01:11;;;;;;;;;;;16.60;98.60;;;;;;5070168;28;19915;-68
2021/09/07 09:03:39;;;;;;;;;;;16.60;98.50;;;;;;5069906;28;19920;-68
2021/09/07 09:06:06;;;;;;;;;;;16.60;98.10;;;;;;5069622;28;19916;-69
2021/09/07 09:08:34;;;;;;;;;;;16.50;98.20;;;;;;5069992;28;19908;-68
2021/09/07 09:11:13;;;;;;;;;;;16.50;98.20;;;;;;5069801;28;19912;-69
2021/09/07 09:13:41;;;;;;;;;;;16.50;98.70;;;;;;5069845;28;20002;-69
2021/09/07 09:16:07;;;;;;;;;;;16.50;98.70;;;;;;5070002;28;19913;-70
2021/09/07 09:18:36;;;;;;;;;;;16.40;98.90;;;;;;5070044;28;20011;-69
2021/09/07 09:21:21;;;;;;;;;;;16.50;99.10;;;;;;5069830;28;19917;-69
2021/09/07 09:24:06;;;;;;;;;;;16.40;99.10;;;;;;5069805;28;19969;-69
2021/09/07 09:26:33;;;;;;;;;;;16.30;99.30;;;;;;5069842;28;19915;-70
2021/09/07 09:29:05;;;;;;;;;;;16.30;99.40;;;;;;5070084;28;20310;-69
2021/09/07 09:31:49;;;;;;;;;;;16.30;99.10;;;;;;5069755;28;19916;-69
2021/09/07 09:34:15;;;;;;;;;;;16.30;99.40;;;;;;5069365;28;19909;-69
2021/09/07 09:37:02;;;;;;;;;;;16.20;99.50;;;;;;5070026;28;20363;-69
2021/09/07 09:39:38;;;;;;;;;;;16.30;99.90;;;;;;5069233;28;20331;-70
2021/09/07 09:42:05;;;;;;;;;;;16.20;99.90;;;;;;5072801;28;19912;-69
2021/09/07 09:44:31;;;;;;;;;;;16.20;99.90;;;;;;5073416;28;19940;-68
2021/09/07 09:46:58;;;;;;;;;;;16.20;99.90;;;;;;5072803;28;19944;-69
2021/09/07 09:49:30;;;;;;;;;;;16.10;99.90;;;;;;5073243;28;19912;-69
2021/09/07 09:52:09;;;;;;;;;;;16.00;99.90;;;;;;5073241;28;19916;-69
2021/09/07 09:54:38;;;;;;;;;;;16.00;99.90;;;;;;5072592;28;19916;-68
2021/09/07 09:57:05;;;;;;;;;;;16.00;99.90;;;;;;5073359;28;19912;-69
2021/09/07 09:59:32;;;;;;;;;;;16.00;99.90;;;;;;5072709;28;20442;-68
2021/09/07 10:02:00;;;;;;;;;;;16.00;99.90;;;;;;5073053;28;19918;-69
2021/09/07 10:04:27;;;;;;;;;;;16.00;99.90;;;;;;5072902;28;20155;-70
2021/09/07 10:06:54;;;;;;;;;;;15.90;99.90;;;;;;5073079;28;19952;-69
2021/09/07 10:09:24;;;;;;;;;;;15.90;99.90;;;;;;5072233;28;19916;-69
2021/09/07 10:11:54;;;;;;;;;;;15.90;99.90;;;;;;5072067;28;19978;-69
2021/09/07 10:14:26;;;;;;;;;;;15.90;99.90;;;;;;5072856;28;19924;-68
2021/09/07 10:17:12;;;;;;;;;;;15.90;99.90;;;;;;5072742;28;20344;-68
2021/09/07 10:19:45;;;;;;;;;;;15.90;99.90;;;;;;5072370;28;19916;-69
2021/09/07 10:25:36;;;;;;;;;;;15.80;99.90;;;;;;5071676;28;20378;-69
2021/09/07 10:28:12;;;;;;;;;;;15.80;99.90;;;;;;5070946;28;19965;-68
2021/09/07 10:31:13;;;;;;;;;;;15.80;99.90;;;;;;5072953;28;19943;-68
2021/09/07 10:33:52;;;;;;;;;;;15.80;99.90;;;;;;5049795;28;19923;-69
2021/09/07 10:36:23;;;;;;;;;;;15.70;99.90;;;;;;5069622;28;19912;-68
2021/09/07 10:38:51;;;;;;;;;;;15.70;99.90;;;;;;5071669;28;19908;-68
2021/09/07 10:41:30;;;;;;;;;;;15.70;99.90;;;;;;5072339;28;19912;-69
2021/09/07 10:43:57;;;;;;;;;;;15.70;99.90;;;;;;5072264;28;19923;-68
2021/09/07 10:46:42;;;;;;;;;;;15.60;99.90;;;;;;5072185;28;19932;-69
2021/09/07 10:49:44;;;;;;;;;;;15.60;99.90;;;;;;5072299;28;19920;-69
2021/09/07 10:52:18;;;;;;;;;;;15.60;99.90;;;;;;5071657;28;19927;-68
2021/09/07 10:54:49;;;;;;;;;;;15.60;99.90;;;;;;5071602;28;20347;-70
2021/09/07 10:57:34;;;;;;;;;;;15.60;99.90;;;;;;5071741;28;19912;-69
2021/09/07 11:00:02;;;;;;;;;;;15.60;99.90;;;;;;5072342;28;20330;-69
2021/09/07 11:02:32;;;;;;;;;;;15.60;99.90;;;;;;5071737;28;19908;-69
2021/09/07 11:05:01;;;;;;;;;;;15.50;99.90;;;;;;5072000;28;20255;-69
2021/09/07 11:07:38;;;;;;;;;;;15.50;99.90;;;;;;5072271;28;19912;-68
2021/09/07 11:10:05;;;;;;;;;;;15.50;99.90;;;;;;5071425;28;19908;-68
2021/09/07 11:12:32;;;;;;;;;;;15.60;99.90;;;;;;5071705;28;19925;-69
2021/09/07 11:15:02;;;;;;;;;;;15.60;99.90;;;;;;5071754;28;19970;-68
2021/09/07 11:17:28;;;;;;;;;;;15.50;99.90;;;;;;5071323;28;19913;-69
2021/09/07 11:20:02;;;;;;;;;;;15.50;99.90;;;;;;5071540;28;19939;-69
2021/09/07 11:22:30;;;;;;;;;;;15.50;99.90;;;;;;5071480;28;20325;-69
2021/09/07 11:25:13;;;;;;;;;;;15.50;99.90;;;;;;5070917;28;19955;-68
2021/09/07 11:27:48;;;;;;;;;;;15.50;99.90;;;;;;5071264;28;19913;-69
2021/09/07 11:30:30;;;;;;;;;;;15.50;99.90;;;;;;5071204;28;19908;-69
2021/09/07 11:33:16;;;;;;;;;;;15.40;99.90;;;;;;5071236;28;19916;-67
2021/09/07 11:35:45;;;;;;;;;;;15.40;99.90;;;;;;5071427;28;20337;-69
2021/09/07 11:38:13;;;;;;;;;;;15.40;99.90;;;;;;5070594;28;19940;-69
2021/09/07 11:40:50;;;;;;;;;;;15.40;99.90;;;;;;5071065;28;19908;-68
2021/09/07 11:43:32;;;;;;;;;;;15.40;99.90;;;;;;5070716;28;19920;-70
2021/09/07 11:46:16;;;;;;;;;;;15.40;99.90;;;;;;5071006;28;19916;-70
2021/09/07 11:48:43;;;;;;;;;;;15.30;99.90;;;;;;5071095;28;20419;-70
2021/09/07 11:51:10;;;;;;;;;;;15.30;99.90;;;;;;5070884;28;19958;-69
2021/09/07 11:53:37;;;;;;;;;;;15.20;99.90;;;;;;5070041;28;19913;-69
2021/09/07 11:56:04;;;;;;;;;;;15.30;99.90;;;;;;5070403;28;19931;-70
2021/09/07 11:58:35;;;;;;;;;;;15.20;99.90;;;;;;5070949;28;19909;-69
2021/09/07 12:01:06;;;;;;;;;;;15.20;99.90;;;;;;5070943;28;19952;-70
2021/09/07 12:03:36;;;;;;;;;;;15.30;99.90;;;;;;5069909;28;19952;-69
2021/09/07 12:06:03;;;;;;;;;;;15.20;99.90;;;;;;5070615;28;19919;-69
2021/09/07 12:08:37;;;;;;;;;;;15.20;99.90;;;;;;5070171;28;19912;-69
2021/09/07 12:11:05;;;;;;;;;;;15.20;99.90;;;;;;5070398;28;19908;-68
2021/09/07 12:13:33;;;;;;;;;;;15.10;99.90;;;;;;5070542;28;20030;-69
2021/09/07 12:15:59;;;;;;;;;;;15.10;99.90;;;;;;5070686;28;19999;-69
2021/09/07 12:18:29;;;;;;;;;;;15.10;99.90;;;;;;5070589;28;19924;-69
2021/09/07 12:21:05;;;;;;;;;;;15.10;99.90;;;;;;5070662;28;20247;-69
2021/09/07 12:23:35;;;;;;;;;;;15.10;99.90;;;;;;5069242;28;20057;-69
2021/09/07 12:26:03;;;;;;;;;;;15.10;99.90;;;;;;5070224;28;20359;-69
2021/09/07 12:28:30;;;;;;;;;;;15.10;99.90;;;;;;5070666;28;19912;-69
2021/09/07 12:31:13;;;;;;;;;;;15.20;99.90;;;;;;5070395;28;20405;-69
2021/09/07 12:33:47;;;;;;;;;;;15.10;99.90;;;;;;5070096;28;19917;-69
2021/09/07 12:36:15;;;;;;;;;;;15.20;99.90;;;;;;5069814;28;20005;-69
2021/09/07 12:38:42;;;;;;;;;;;15.20;99.90;;;;;;5069727;28;19924;-68
2021/09/07 12:41:12;;;;;;;;;;;15.10;99.90;;;;;;5070273;28;19908;-68
2021/09/07 12:43:43;;;;;;;;;;;15.10;99.90;;;;;;5071919;28;19935;-68
2021/09/07 12:46:11;;;;;;;;;;;15.00;99.90;;;;;;5072204;28;20419;-69
2021/09/07 12:48:40;;;;;;;;;;;15.00;99.90;;;;;;5072178;28;19915;-69
2021/09/07 12:51:07;;;;;;;;;;;15.00;99.90;;;;;;5072130;28;19955;-68
2021/09/07 12:53:42;;;;;;;;;;;14.90;99.90;;;;;;5071493;28;19912;-69
2021/09/07 12:56:11;;;;;;;;;;;14.90;99.90;;;;;;5082020;28;19908;-69
2021/09/07 12:58:39;;;;;;;;;;;14.90;99.90;;;;;;5072290;28;20378;-69
2021/09/07 13:01:07;;;;;;;;;;;14.90;99.90;;;;;;5072437;28;19909;-69
2021/09/07 13:03:37;;;;;;;;;;;14.90;99.90;;;;;;5072177;28;19970;-69
2021/09/07 13:06:07;;;;;;;;;;;14.90;99.90;;;;;;5072261;28;19909;-70
2021/09/07 13:08:33;;;;;;;;;;;14.90;99.90;;;;;;5072038;28;20404;-69
2021/09/07 13:11:00;;;;;;;;;;;14.80;99.90;;;;;;5072182;28;19916;-70
2021/09/07 13:13:27;;;;;;;;;;;14.80;99.90;;;;;;5071964;28;19917;-70
2021/09/07 13:15:53;;;;;;;;;;;14.80;99.90;;;;;;5075374;28;19962;-70
2021/09/07 13:18:20;;;;;;;;;;;14.80;99.90;;;;;;5076132;28;20410;-69
2021/09/07 13:20:47;;;;;;;;;;;14.70;99.90;;;;;;5076066;28;19996;-70
2021/09/07 13:23:13;;;;;;;;;;;14.70;99.90;;;;;;5075977;28;19994;-69
2021/09/07 13:25:40;;;;;;;;;;;14.70;99.90;;;;;;5075918;28;20363;-69
2021/09/07 13:28:07;;;;;;;;;;;14.70;99.90;;;;;;5076020;28;19908;-69
2021/09/07 13:30:34;;;;;;;;;;;14.70;99.90;;;;;;5075893;28;20367;-69
2021/09/07 13:33:00;;;;;;;;;;;14.80;99.90;;;;;;5075683;28;20276;-69
2021/09/07 13:35:27;;;;;;;;;;;14.70;99.90;;;;;;5075766;28;19909;-69
2021/09/07 13:37:54;;;;;;;;;;;14.80;99.90;;;;;;5075512;28;19995;-69
2021/09/07 13:40:21;;;;;;;;;;;14.70;99.90;;;;;;5075569;28;19912;-70
2021/09/07 13:42:47;;;;;;;;;;;14.70;99.90;;;;;;5075597;28;19916;-69
2021/09/07 13:45:14;;;;;;;;;;;14.70;99.90;;;;;;5075603;28;20263;-68
2021/09/07 13:47:41;;;;;;;;;;;14.70;99.90;;;;;;5075379;28;19924;-69
2021/09/07 13:50:08;;;;;;;;;;;14.60;99.90;;;;;;5075553;28;19916;-70
2021/09/07 13:52:35;;;;;;;;;;;14.60;99.90;;;;;;5075343;28;19916;-70
2021/09/07 13:55:01;;;;;;;;;;;14.50;99.90;;;;;;5075334;28;19920;-69
2021/09/07 13:57:28;;;;;;;;;;;14.40;99.90;;;;;;5075348;28;19912;-69
2021/09/07 13:59:55;;;;;;;;;;;14.40;99.90;;;;;;5075356;28;19973;-69
2021/09/07 14:02:22;;;;;;;;;;;14.40;99.90;;;;;;5075281;28;19916;-69
2021/09/07 14:04:48;;;;;;;;;;;14.40;99.90;;;;;;5075177;28;20316;-69
2021/09/07 14:07:18;;;;;;;;;;;14.40;99.90;;;;;;5075435;28;19916;-69
2021/09/07 14:09:44;;;;;;;;;;;14.40;99.90;;;;;;5074885;28;19914;-69
2021/09/07 14:12:11;;;;;;;;;;;14.30;99.90;;;;;;5075015;28;19975;-69
2021/09/07 14:14:38;;;;;;;;;;;14.30;99.90;;;;;;5075117;28;19908;-70
2021/09/07 14:17:05;;;;;;;;;;;14.30;99.90;;;;;;5074962;28;19908;-69
2021/09/07 14:19:32;;;;;;;;;;;14.30;99.90;;;;;;5074695;28;19917;-69
2021/09/07 14:21:58;;;;;;;;;;;14.30;99.90;;;;;;5075061;28;20003;-69
2021/09/07 14:24:25;;;;;;;;;;;14.20;99.90;;;;;;5074778;28;19958;-71
2021/09/07 14:26:52;;;;;;;;;;;14.10;99.90;;;;;;5074128;28;19912;-70